createdAt,value
2023-05-22T00:00:21.118Z,3.58
2023-05-22T00:01:25.004Z,3.60
2023-05-22T00:02:27.277Z,3.35
2023-05-22T00:03:29.799Z,3.17
2023-05-22T00:04:32.003Z,2.93
2023-05-22T00:05:34.080Z,3.17
2023-05-22T00:06:36.343Z,3.00
2023-05-22T00:07:39.371Z,3.23
2023-05-22T00:08:41.586Z,3.55
2023-05-22T00:09:43.487Z,3.15
2023-05-22T00:10:45.537Z,3.29
2023-05-22T00:11:47.501Z,3.43
2023-05-22T00:12:49.446Z,3.19
2023-05-22T00:13:51.389Z,3.07
2023-05-22T00:14:53.512Z,3.24
2023-05-22T00:15:55.508Z,3.60
2023-05-22T00:16:57.584Z,3.04
2023-05-22T00:18:00.037Z,3.21
2023-05-22T00:19:02.083Z,3.43
2023-05-22T00:20:05.977Z,3.22
2023-05-22T00:21:09.146Z,3.42
2023-05-22T00:22:11.590Z,3.58
2023-05-22T00:23:15.599Z,3.29
2023-05-22T00:24:17.709Z,4.11
2023-05-22T00:25:19.725Z,3.41
2023-05-22T00:26:21.908Z,3.57
2023-05-22T00:27:23.860Z,3.74
2023-05-22T00:28:26.771Z,2.99
2023-05-22T00:29:28.812Z,3.62
2023-05-22T00:30:31.536Z,3.57
2023-05-22T00:31:33.500Z,3.38
2023-05-22T00:32:35.547Z,2.84
2023-05-22T00:33:37.654Z,3.37
2023-05-22T00:34:40.109Z,3.23
2023-05-22T00:35:42.275Z,3.39
2023-05-22T00:36:44.432Z,3.44
2023-05-22T00:37:46.521Z,3.04
2023-05-22T00:38:48.783Z,3.17
2023-05-22T00:39:50.826Z,3.29
2023-05-22T00:40:52.858Z,3.27
2023-05-22T00:41:54.758Z,3.19
2023-05-22T00:42:56.809Z,3.28
2023-05-22T00:43:59.746Z,3.17
2023-05-22T00:45:01.664Z,3.45
2023-05-22T00:46:03.930Z,2.81
2023-05-22T00:47:05.997Z,3.13
2023-05-22T00:48:08.642Z,3.51
2023-05-22T00:49:11.049Z,3.27
2023-05-22T00:50:13.171Z,3.48
2023-05-22T00:51:16.035Z,3.10
2023-05-22T00:52:19.001Z,3.24
2023-05-22T00:53:23.553Z,2.89
2023-05-22T00:54:25.768Z,3.12
2023-05-22T00:55:27.866Z,3.33
2023-05-22T00:56:30.163Z,2.73
2023-05-22T00:57:34.394Z,3.21
2023-05-22T00:58:36.419Z,3.28
2023-05-22T00:59:38.646Z,3.91
2023-05-22T01:00:41.351Z,3.41
2023-05-22T01:01:43.529Z,3.22
2023-05-22T01:02:45.912Z,3.45
2023-05-22T01:03:49.940Z,3.13
2023-05-22T01:04:52.833Z,3.09
2023-05-22T01:05:55.298Z,3.48
2023-05-22T01:06:57.574Z,2.99
2023-05-22T01:07:59.795Z,2.94
2023-05-22T01:09:02.193Z,3.61
2023-05-22T01:10:05.691Z,3.41
2023-05-22T01:11:11.441Z,3.52
2023-05-22T01:12:28.983Z,2.91
2023-05-22T01:14:08.133Z,2.83
2023-05-22T01:15:25.708Z,2.68
2023-05-22T01:16:37.818Z,2.97
2023-05-22T01:18:07.580Z,2.99
2023-05-22T01:19:32.137Z,3.02
2023-05-22T01:20:38.747Z,3.11
2023-05-22T01:21:44.833Z,2.94
2023-05-22T01:23:05.566Z,3.36
2023-05-22T01:24:11.615Z,3.22
2023-05-22T01:25:36.768Z,2.84
2023-05-22T01:26:45.395Z,2.97
2023-05-22T01:27:57.088Z,3.12
2023-05-22T01:29:11.988Z,3.01
2023-05-22T01:30:30.034Z,2.87
2023-05-22T01:31:35.725Z,2.93
2023-05-22T01:32:40.108Z,2.95
2023-05-22T01:33:57.044Z,2.99
2023-05-22T01:35:01.624Z,3.04
2023-05-22T01:36:07.075Z,3.31
2023-05-22T01:37:09.940Z,2.93
2023-05-22T01:38:14.986Z,3.39
2023-05-22T01:39:18.131Z,3.40
2023-05-22T01:40:21.365Z,3.06
2023-05-22T01:41:23.658Z,3.36
2023-05-22T01:42:26.600Z,3.38
2023-05-22T01:43:30.008Z,3.62
2023-05-22T01:44:32.003Z,3.33
2023-05-22T01:45:34.002Z,3.14
2023-05-22T01:46:36.203Z,3.29
2023-05-22T01:47:38.261Z,3.21
2023-05-22T01:48:40.327Z,3.26
2023-05-22T01:49:43.384Z,3.05
2023-05-22T01:50:49.314Z,3.72
2023-05-22T01:53:30.024Z,3.15
2023-05-22T01:55:07.695Z,3.57
2023-05-22T01:56:13.754Z,3.41
2023-05-22T01:57:22.436Z,3.23
2023-05-22T01:58:44.984Z,4.15
2023-05-22T02:00:02.956Z,4.58
2023-05-22T02:01:08.279Z,4.68
2023-05-22T02:02:14.313Z,5.61
2023-05-22T02:03:20.683Z,5.67
2023-05-22T02:04:23.355Z,5.28
2023-05-22T02:05:28.030Z,5.22
2023-05-22T02:06:32.554Z,5.71
2023-05-22T02:07:38.215Z,6.11
2023-05-22T02:08:42.262Z,4.67
2023-05-22T02:09:46.990Z,5.16
2023-05-22T02:10:51.499Z,5.28
2023-05-22T02:11:53.520Z,4.21
2023-05-22T02:12:56.334Z,4.47
2023-05-22T02:13:58.234Z,4.31
2023-05-22T02:15:00.718Z,3.70
2023-05-22T02:16:04.418Z,3.67
2023-05-22T02:17:06.527Z,3.84
2023-05-22T02:18:11.583Z,3.45
2023-05-22T02:19:14.209Z,3.72
2023-05-22T02:20:18.488Z,3.87
2023-05-22T02:21:22.736Z,4.24
2023-05-22T02:22:24.753Z,4.11
2023-05-22T02:23:27.105Z,4.32
2023-05-22T02:24:32.139Z,3.97
2023-05-22T02:25:34.166Z,4.40
2023-05-22T02:26:36.504Z,4.83
2023-05-22T02:27:38.477Z,5.06
2023-05-22T02:28:40.468Z,4.67
2023-05-22T02:29:42.347Z,4.39
2023-05-22T02:30:44.526Z,4.41
2023-05-22T02:31:46.489Z,4.55
2023-05-22T02:32:48.600Z,3.56
2023-05-22T02:33:50.556Z,3.92
2023-05-22T02:34:54.657Z,4.04
2023-05-22T02:35:56.454Z,4.18
2023-05-22T02:36:59.740Z,3.33
2023-05-22T02:38:01.795Z,4.25
2023-05-22T02:39:04.764Z,3.52
2023-05-22T02:40:09.625Z,3.97
2023-05-22T02:41:12.894Z,3.70
2023-05-22T02:42:15.254Z,3.45
2023-05-22T02:43:17.259Z,4.13
2023-05-22T02:44:19.241Z,3.40
2023-05-22T02:45:21.637Z,3.81
2023-05-22T02:46:23.684Z,3.80
2023-05-22T02:47:25.741Z,3.95
2023-05-22T02:48:27.718Z,4.29
2023-05-22T02:49:29.606Z,3.92
2023-05-22T02:50:31.792Z,3.99
2023-05-22T02:51:33.791Z,4.34
2023-05-22T02:52:35.846Z,3.57
2023-05-22T02:53:37.846Z,3.63
2023-05-22T02:54:40.053Z,4.33
2023-05-22T02:55:42.843Z,4.27
2023-05-22T02:56:44.943Z,4.21
2023-05-22T02:57:47.167Z,4.00
2023-05-22T02:58:49.219Z,4.21
2023-05-22T02:59:51.373Z,4.29
2023-05-22T03:00:53.875Z,3.89
2023-05-22T03:01:55.978Z,4.24
2023-05-22T03:02:58.058Z,3.74
2023-05-22T03:04:00.199Z,4.01
2023-05-22T03:05:02.503Z,4.51
2023-05-22T03:06:04.995Z,5.01
2023-05-22T03:07:07.266Z,4.68
2023-05-22T03:08:09.346Z,4.03
2023-05-22T03:09:11.667Z,4.77
2023-05-22T03:10:14.074Z,4.41
2023-05-22T03:11:15.979Z,4.65
2023-05-22T03:12:17.887Z,4.79
2023-05-22T03:13:20.473Z,4.66
2023-05-22T03:14:22.373Z,4.53
2023-05-22T03:15:24.366Z,4.33
2023-05-22T03:16:26.472Z,4.48
2023-05-22T03:17:28.475Z,4.49
2023-05-22T03:18:30.551Z,4.06
2023-05-22T03:19:33.017Z,3.79
2023-05-22T03:20:35.184Z,4.15
2023-05-22T03:21:37.841Z,4.11
2023-05-22T03:22:39.908Z,4.81
2023-05-22T03:23:44.302Z,3.92
2023-05-22T03:24:46.242Z,3.73
2023-05-22T03:25:48.395Z,4.14
2023-05-22T03:26:50.723Z,3.65
2023-05-22T03:27:54.057Z,4.03
2023-05-22T03:28:57.046Z,3.84
2023-05-22T03:29:59.140Z,3.73
2023-05-22T03:31:03.561Z,3.53
2023-05-22T03:32:05.839Z,4.74
2023-05-22T03:33:07.859Z,3.62
2023-05-22T03:34:10.043Z,4.20
2023-05-22T03:35:12.285Z,4.02
2023-05-22T03:36:15.149Z,3.60
2023-05-22T03:37:17.067Z,3.65
2023-05-22T03:38:19.072Z,3.41
2023-05-22T03:39:20.964Z,3.53
2023-05-22T03:40:23.103Z,3.70
2023-05-22T03:41:25.133Z,3.31
2023-05-22T03:42:27.374Z,3.42
2023-05-22T03:43:29.393Z,3.37
2023-05-22T03:44:33.349Z,3.56
2023-05-22T03:45:35.313Z,3.63
2023-05-22T03:46:37.599Z,3.77
2023-05-22T03:47:39.953Z,3.92
2023-05-22T03:48:42.716Z,3.68
2023-05-22T03:49:44.602Z,3.70
2023-05-22T03:50:46.732Z,3.09
2023-05-22T03:51:48.658Z,3.17
2023-05-22T03:52:50.678Z,3.41
2023-05-22T03:53:52.716Z,3.51
2023-05-22T03:54:54.688Z,3.51
2023-05-22T03:55:56.686Z,3.93
2023-05-22T03:56:58.764Z,3.19
2023-05-22T03:58:00.681Z,3.58
2023-05-22T03:59:02.673Z,3.47
2023-05-22T04:00:06.184Z,3.47
2023-05-22T04:01:08.205Z,3.67
2023-05-22T04:02:10.234Z,3.32
2023-05-22T04:03:12.421Z,3.45
2023-05-22T04:04:14.857Z,3.35
2023-05-22T04:05:17.004Z,3.06
2023-05-22T04:06:19.072Z,3.48
2023-05-22T04:07:21.241Z,3.19
2023-05-22T04:08:23.671Z,2.90
2023-05-22T04:09:26.892Z,3.51
2023-05-22T04:10:28.914Z,3.21
2023-05-22T04:11:30.785Z,3.00
2023-05-22T04:12:32.885Z,3.37
2023-05-22T04:13:34.862Z,3.01
2023-05-22T04:14:36.840Z,3.22
2023-05-22T04:15:38.743Z,3.27
2023-05-22T04:16:40.785Z,3.23
2023-05-22T04:17:42.676Z,3.84
2023-05-22T04:18:44.881Z,3.31
2023-05-22T04:19:46.879Z,3.50
2023-05-22T04:20:48.952Z,3.29
2023-05-22T04:21:50.820Z,3.05
2023-05-22T04:22:52.955Z,3.15
2023-05-22T04:23:54.954Z,3.00
2023-05-22T04:24:56.974Z,3.12
2023-05-22T04:25:58.852Z,3.88
2023-05-22T04:27:00.959Z,2.87
2023-05-22T04:28:03.077Z,3.07
2023-05-22T04:29:05.307Z,3.53
2023-05-22T04:30:10.111Z,3.41
2023-05-22T04:31:13.035Z,3.18
2023-05-22T04:32:15.840Z,3.00
2023-05-22T04:33:17.715Z,2.71
2023-05-22T04:34:19.722Z,3.17
2023-05-22T04:35:21.594Z,3.14
2023-05-22T04:36:23.588Z,2.63
2023-05-22T04:37:25.463Z,2.97
2023-05-22T04:38:28.595Z,3.38
2023-05-22T04:39:30.477Z,3.70
2023-05-22T04:40:32.520Z,3.69
2023-05-22T04:41:34.473Z,3.08
2023-05-22T04:42:37.815Z,2.71
2023-05-22T04:43:39.924Z,3.15
2023-05-22T04:44:41.928Z,3.33
2023-05-22T04:45:44.063Z,2.67
2023-05-22T04:46:46.148Z,2.38
2023-05-22T04:47:48.178Z,2.57
2023-05-22T04:48:50.178Z,2.70
2023-05-22T04:49:52.207Z,2.77
2023-05-22T04:50:54.234Z,2.87
2023-05-22T04:51:56.121Z,3.09
2023-05-22T04:52:58.713Z,2.31
2023-05-22T04:54:00.647Z,2.82
2023-05-22T04:55:05.945Z,2.96
2023-05-22T04:56:08.315Z,2.42
2023-05-22T04:57:10.351Z,2.99
2023-05-22T04:58:12.236Z,2.56
2023-05-22T04:59:14.247Z,3.08
2023-05-22T05:00:17.661Z,2.73
2023-05-22T05:01:19.687Z,2.77
2023-05-22T05:02:21.766Z,2.86
2023-05-22T05:03:24.711Z,2.61
2023-05-22T05:04:26.689Z,2.82
2023-05-22T05:05:28.824Z,3.07
2023-05-22T05:06:30.858Z,2.58
2023-05-22T05:07:38.301Z,2.42
2023-05-22T05:08:40.326Z,2.70
2023-05-22T05:09:42.211Z,2.90
2023-05-22T05:10:44.176Z,2.74
2023-05-22T05:11:46.063Z,2.79
2023-05-22T05:12:48.104Z,2.55
2023-05-22T05:13:50.022Z,3.27
2023-05-22T05:14:52.068Z,3.26
2023-05-22T05:15:54.394Z,2.79
2023-05-22T05:16:56.596Z,2.69
2023-05-22T05:17:58.765Z,3.07
2023-05-22T05:19:00.991Z,2.93
2023-05-22T05:20:04.333Z,2.77
2023-05-22T05:21:06.248Z,2.87
2023-05-22T05:22:08.240Z,3.06
2023-05-22T05:23:10.286Z,3.06
2023-05-22T05:24:12.354Z,2.82
2023-05-22T05:25:14.397Z,3.00
2023-05-22T05:26:16.925Z,2.90
2023-05-22T05:27:18.838Z,3.25
2023-05-22T05:28:20.958Z,3.72
2023-05-22T05:29:23.233Z,3.18
2023-05-22T05:30:25.233Z,3.25
2023-05-22T05:31:27.220Z,2.83
2023-05-22T05:32:29.857Z,3.22
2023-05-22T05:33:32.259Z,3.13
2023-05-22T05:34:35.367Z,3.23
2023-05-22T05:35:37.318Z,2.82
2023-05-22T05:36:39.643Z,2.99
2023-05-22T05:37:41.557Z,2.81
2023-05-22T05:38:43.625Z,2.83
2023-05-22T05:39:45.553Z,2.95
2023-05-22T05:40:48.461Z,3.39
2023-05-22T05:41:50.373Z,3.21
2023-05-22T05:42:52.271Z,2.95
2023-05-22T05:43:54.259Z,2.96
2023-05-22T05:44:56.176Z,3.17
2023-05-22T05:45:58.108Z,3.05
2023-05-22T05:47:00.468Z,3.10
2023-05-22T05:48:02.792Z,3.18
2023-05-22T05:49:08.726Z,2.99
2023-05-22T05:50:11.061Z,3.53
2023-05-22T05:51:13.089Z,3.16
2023-05-22T05:52:15.104Z,3.20
2023-05-22T05:53:17.123Z,5.04
2023-05-22T05:54:19.159Z,3.39
2023-05-22T05:55:22.011Z,3.09
2023-05-22T05:56:24.153Z,3.49
2023-05-22T05:57:27.109Z,3.19
2023-05-22T05:58:29.239Z,3.16
2023-05-22T05:59:31.162Z,3.15
2023-05-22T06:00:33.374Z,2.95
2023-05-22T06:01:37.269Z,3.08
2023-05-22T06:02:39.279Z,2.96
2023-05-22T06:03:41.440Z,2.85
2023-05-22T06:04:43.602Z,2.73
2023-05-22T06:05:45.572Z,2.79
2023-05-22T06:06:47.765Z,2.69
2023-05-22T06:07:51.237Z,2.80
2023-05-22T06:08:53.156Z,2.85
2023-05-22T06:09:55.056Z,2.73
2023-05-22T06:10:57.185Z,3.31
2023-05-22T06:11:59.215Z,3.00
2023-05-22T06:13:01.141Z,2.84
2023-05-22T06:14:04.489Z,2.99
2023-05-22T06:15:07.208Z,2.79
2023-05-22T06:16:09.461Z,2.58
2023-05-22T06:17:11.535Z,2.63
2023-05-22T06:18:13.615Z,2.63
2023-05-22T06:19:15.571Z,2.91
2023-05-22T06:20:17.974Z,2.87
2023-05-22T06:21:19.865Z,2.50
2023-05-22T06:22:21.745Z,2.48
2023-05-22T06:23:23.620Z,2.52
2023-05-22T06:24:25.502Z,2.98
2023-05-22T06:25:27.395Z,2.69
2023-05-22T06:26:29.799Z,2.88
2023-05-22T06:27:31.960Z,2.96
2023-05-22T06:28:33.986Z,2.56
2023-05-22T06:29:35.899Z,2.79
2023-05-22T06:30:40.417Z,2.53
2023-05-22T06:31:42.492Z,2.86
2023-05-22T06:32:45.008Z,2.45
2023-05-22T06:33:47.406Z,2.36
2023-05-22T06:34:49.400Z,2.17
2023-05-22T06:35:51.290Z,2.57
2023-05-22T06:36:53.393Z,2.34
2023-05-22T06:37:55.510Z,2.26
2023-05-22T06:38:57.490Z,2.24
2023-05-22T06:39:59.405Z,2.11
2023-05-22T06:41:01.504Z,2.82
2023-05-22T06:42:03.565Z,2.24
2023-05-22T06:43:05.670Z,3.07
2023-05-22T06:44:07.934Z,2.24
2023-05-22T06:45:10.340Z,3.52
2023-05-22T06:46:13.762Z,2.41
2023-05-22T06:47:16.969Z,3.07
2023-05-22T06:48:19.008Z,2.43
2023-05-22T06:49:21.113Z,2.45
2023-05-22T06:50:23.286Z,2.67
2023-05-22T06:51:25.706Z,2.67
2023-05-22T06:52:27.819Z,1.95
2023-05-22T06:53:29.736Z,2.31
2023-05-22T06:54:31.637Z,2.43
2023-05-22T06:55:33.713Z,2.25
2023-05-22T06:56:35.850Z,2.57
2023-05-22T06:57:37.723Z,2.48
2023-05-22T06:58:39.622Z,2.81
2023-05-22T06:59:41.643Z,2.82
2023-05-22T07:00:43.755Z,2.39
2023-05-22T07:01:45.847Z,2.50
2023-05-22T07:02:47.950Z,3.43
2023-05-22T07:03:50.097Z,2.85
2023-05-22T07:04:52.335Z,2.47
2023-05-22T07:05:55.579Z,2.69
2023-05-22T07:06:57.727Z,2.27
2023-05-22T07:07:59.836Z,2.07
2023-05-22T07:09:01.809Z,2.37
2023-05-22T07:10:04.985Z,2.28
2023-05-22T07:11:06.885Z,2.49
2023-05-22T07:12:09.495Z,1.91
2023-05-22T07:13:11.961Z,1.78
2023-05-22T07:14:14.223Z,2.17
2023-05-22T07:15:16.141Z,1.83
2023-05-22T07:16:18.302Z,1.84
2023-05-22T07:17:20.494Z,2.05
2023-05-22T07:18:22.569Z,2.22
2023-05-22T07:19:24.612Z,2.01
2023-05-22T07:20:26.956Z,2.19
2023-05-22T07:21:28.837Z,2.07
2023-05-22T07:22:30.715Z,1.44
2023-05-22T07:23:32.620Z,1.95
2023-05-22T07:24:34.640Z,1.45
2023-05-22T07:25:36.619Z,1.75
2023-05-22T07:26:41.011Z,1.58
2023-05-22T07:27:43.040Z,2.34
2023-05-22T07:28:44.981Z,1.82
2023-05-22T07:29:46.903Z,2.11
2023-05-22T07:30:49.326Z,2.21
2023-05-22T07:31:51.484Z,2.05
2023-05-22T07:32:53.528Z,2.05
2023-05-22T07:33:55.642Z,2.02
2023-05-22T07:34:57.651Z,1.76
2023-05-22T07:35:59.554Z,1.63
2023-05-22T07:37:05.420Z,2.15
2023-05-22T07:38:07.382Z,1.56
2023-05-22T07:39:10.565Z,1.77
2023-05-22T07:40:12.993Z,1.82
2023-05-22T07:41:15.226Z,2.01
2023-05-22T07:42:17.130Z,1.85
2023-05-22T07:43:19.150Z,1.77
2023-05-22T07:44:21.142Z,1.60
2023-05-22T07:45:23.440Z,1.97
2023-05-22T07:46:25.962Z,1.52
2023-05-22T07:47:28.102Z,1.58
2023-05-22T07:48:30.122Z,1.75
2023-05-22T07:49:32.324Z,1.74
2023-05-22T07:50:34.682Z,2.21
2023-05-22T07:51:36.850Z,1.61
2023-05-22T07:52:38.772Z,1.89
2023-05-22T07:53:40.809Z,2.07
2023-05-22T07:54:45.292Z,1.91
2023-05-22T07:55:47.820Z,1.91
2023-05-22T07:56:49.881Z,1.66
2023-05-22T07:57:51.945Z,2.02
2023-05-22T07:58:53.935Z,2.18
2023-05-22T07:59:56.382Z,1.61
2023-05-22T08:00:58.483Z,1.71
2023-05-22T08:02:01.196Z,1.67
2023-05-22T08:03:03.943Z,2.09
2023-05-22T08:04:06.079Z,1.99
2023-05-22T08:05:09.440Z,1.93
2023-05-22T08:06:11.985Z,1.66
2023-05-22T08:07:14.190Z,1.68
2023-05-22T08:08:16.177Z,2.23
2023-05-22T08:09:18.074Z,1.70
2023-05-22T08:10:20.083Z,1.45
2023-05-22T08:11:22.088Z,1.60
2023-05-22T08:12:24.454Z,1.59
2023-05-22T08:13:26.349Z,1.58
2023-05-22T08:14:29.646Z,2.00
2023-05-22T08:15:32.278Z,2.09
2023-05-22T08:16:34.716Z,2.27
2023-05-22T08:17:37.047Z,1.97
2023-05-22T08:18:39.124Z,2.42
2023-05-22T08:19:41.248Z,2.10
2023-05-22T08:20:43.609Z,1.57
2023-05-22T08:21:45.633Z,1.33
2023-05-22T08:22:47.547Z,1.97
2023-05-22T08:23:49.455Z,1.43
2023-05-22T08:24:51.467Z,1.75
2023-05-22T08:25:53.484Z,1.65
2023-05-22T08:26:56.693Z,1.49
2023-05-22T08:27:58.619Z,1.73
2023-05-22T08:29:00.819Z,1.39
2023-05-22T08:30:03.290Z,1.94
2023-05-22T08:31:05.480Z,1.81
2023-05-22T08:32:07.524Z,2.34
2023-05-22T08:33:09.768Z,2.04
2023-05-22T08:34:11.880Z,1.53
2023-05-22T08:35:14.162Z,1.65
2023-05-22T08:36:16.422Z,1.49
2023-05-22T08:37:18.385Z,2.48
2023-05-22T08:38:20.577Z,2.07
2023-05-22T08:39:22.656Z,1.77
2023-05-22T08:40:28.395Z,1.89
2023-05-22T08:41:30.488Z,1.45
2023-05-22T08:42:32.412Z,1.49
2023-05-22T08:43:34.931Z,1.31
2023-05-22T08:44:37.185Z,1.71
2023-05-22T08:45:39.184Z,1.80
2023-05-22T08:46:41.336Z,1.70
2023-05-22T08:47:44.246Z,1.65
2023-05-22T08:48:47.488Z,1.54
2023-05-22T08:49:51.092Z,1.27
2023-05-22T08:50:53.805Z,1.63
2023-05-22T08:51:59.571Z,1.41
2023-05-22T08:53:05.855Z,1.30
2023-05-22T08:54:08.820Z,1.39
2023-05-22T08:55:11.216Z,1.41
2023-05-22T08:56:13.990Z,1.61
2023-05-22T08:57:17.320Z,1.73
2023-05-22T08:59:31.689Z,1.33
2023-05-22T09:00:33.995Z,1.53
2023-05-22T09:01:37.186Z,1.27
2023-05-22T09:02:40.081Z,1.31
2023-05-22T09:03:42.635Z,1.12
2023-05-22T09:04:45.462Z,1.24
2023-05-22T09:05:47.470Z,1.33
2023-05-22T09:06:49.756Z,1.50
2023-05-22T09:07:55.275Z,1.61
2023-05-22T09:09:00.756Z,1.53
2023-05-22T09:10:03.147Z,1.58
2023-05-22T09:11:05.509Z,1.21
2023-05-22T09:12:09.327Z,1.47
2023-05-22T09:13:15.185Z,1.05
2023-05-22T09:14:18.161Z,1.43
2023-05-22T09:15:21.933Z,1.21
2023-05-22T09:16:24.818Z,1.50
2023-05-22T09:17:28.048Z,1.59
2023-05-22T09:18:31.222Z,1.37
2023-05-22T09:19:33.316Z,1.76
2023-05-22T09:20:38.624Z,1.74
2023-05-22T09:21:41.358Z,1.83
2023-05-22T09:22:43.353Z,1.56
2023-05-22T09:23:50.021Z,2.17
2023-05-22T09:24:52.128Z,1.34
2023-05-22T09:25:59.304Z,1.57
2023-05-22T09:27:03.110Z,1.33
2023-05-22T09:28:05.028Z,1.26
2023-05-22T09:29:08.392Z,1.19
2023-05-22T09:30:14.012Z,1.33
2023-05-22T09:31:16.001Z,1.34
2023-05-22T09:32:19.377Z,1.19
2023-05-22T09:33:22.573Z,1.47
2023-05-22T09:34:29.320Z,1.62
2023-05-22T09:35:31.875Z,1.49
2023-05-22T09:36:35.990Z,2.90
2023-05-22T09:37:39.573Z,1.32
2023-05-22T09:38:41.480Z,1.45
2023-05-22T09:39:48.126Z,1.30
2023-05-22T09:40:54.467Z,1.69
2023-05-22T09:42:00.223Z,1.32
2023-05-22T09:43:07.275Z,1.91
2023-05-22T09:44:14.498Z,1.24
2023-05-22T09:45:21.718Z,1.31
2023-05-22T09:46:23.873Z,1.23
2023-05-22T09:47:25.872Z,0.99
2023-05-22T09:48:27.858Z,1.24
2023-05-22T09:49:29.860Z,1.59
2023-05-22T09:50:32.291Z,1.33
2023-05-22T09:51:37.071Z,1.63
2023-05-22T09:52:39.391Z,1.45
2023-05-22T09:53:43.621Z,1.63
2023-05-22T09:54:49.306Z,1.34
2023-05-22T09:55:53.973Z,2.77
2023-05-22T09:56:58.857Z,2.82
2023-05-22T09:58:03.663Z,1.17
2023-05-22T09:59:08.474Z,1.18
2023-05-22T10:00:15.368Z,1.49
2023-05-22T10:01:20.579Z,1.46
2023-05-22T10:02:24.345Z,1.60
2023-05-22T10:03:27.004Z,1.28
2023-05-22T10:04:32.331Z,1.21
2023-05-22T10:05:36.804Z,1.36
2023-05-22T10:06:41.549Z,1.21
2023-05-22T10:07:47.345Z,1.44
2023-05-22T10:08:53.358Z,1.67
2023-05-22T10:09:59.055Z,1.34
2023-05-22T10:11:02.777Z,1.27
2023-05-22T10:12:09.470Z,1.45
2023-05-22T10:13:12.286Z,1.37
2023-05-22T10:14:16.320Z,1.21
2023-05-22T10:15:20.118Z,1.37
2023-05-22T10:16:25.060Z,1.37
2023-05-22T10:17:27.699Z,1.72
2023-05-22T10:18:31.026Z,1.37
2023-05-22T10:19:35.839Z,1.48
2023-05-22T10:20:39.755Z,1.32
2023-05-22T10:21:42.038Z,1.32
2023-05-22T10:22:46.710Z,1.68
2023-05-22T10:23:49.997Z,1.25
2023-05-22T10:24:53.487Z,1.38
2023-05-22T10:25:56.953Z,1.23
2023-05-22T10:26:58.992Z,1.20
2023-05-22T10:28:03.081Z,1.07
2023-05-22T10:29:08.938Z,1.24
2023-05-22T10:30:27.620Z,1.21
2023-05-22T10:31:45.389Z,1.11
2023-05-22T10:32:54.252Z,1.63
2023-05-22T10:34:03.388Z,1.23
2023-05-22T10:35:21.663Z,1.24
2023-05-22T10:36:47.603Z,1.53
2023-05-22T10:37:52.691Z,1.24
2023-05-22T10:39:23.712Z,1.21
2023-05-22T10:40:29.213Z,1.32
2023-05-22T10:41:31.998Z,1.38
2023-05-22T10:42:37.265Z,1.12
2023-05-22T10:43:42.951Z,1.11
2023-05-22T10:44:49.068Z,1.19
2023-05-22T10:45:54.916Z,1.28
2023-05-22T10:46:57.114Z,1.30
2023-05-22T10:48:06.651Z,1.47
2023-05-22T10:49:08.832Z,1.32
2023-05-22T10:50:12.039Z,1.49
2023-05-22T10:51:16.630Z,1.84
2023-05-22T10:52:18.610Z,1.64
2023-05-22T10:53:26.331Z,1.20
2023-05-22T10:54:45.253Z,1.24
2023-05-22T10:55:58.031Z,1.38
2023-05-22T10:57:13.457Z,1.46
2023-05-22T10:58:16.851Z,1.49
2023-05-22T10:59:22.620Z,1.27
2023-05-22T11:00:24.662Z,1.22
2023-05-22T11:01:26.848Z,1.66
2023-05-22T11:02:29.276Z,1.55
2023-05-22T11:03:52.486Z,1.51
2023-05-22T11:04:54.753Z,1.54
2023-05-22T11:05:56.734Z,1.23
2023-05-22T11:07:03.876Z,1.42
2023-05-22T11:08:27.236Z,1.53
2023-05-22T11:09:35.839Z,1.19
2023-05-22T11:10:54.509Z,1.50
2023-05-22T11:12:15.759Z,1.44
2023-05-22T11:13:18.060Z,1.32
2023-05-22T11:14:20.169Z,1.51
2023-05-22T11:15:25.833Z,1.29
2023-05-22T11:16:33.580Z,1.44
2023-05-22T11:17:41.846Z,1.13
2023-05-22T11:18:45.351Z,1.17
2023-05-22T11:21:02.331Z,1.50
2023-05-22T11:22:04.683Z,1.15
2023-05-22T11:23:07.523Z,1.30
2023-05-22T11:24:10.270Z,1.28
2023-05-22T11:25:16.935Z,1.36
2023-05-22T11:26:21.026Z,1.26
2023-05-22T11:27:23.817Z,1.59
2023-05-22T11:28:26.722Z,1.12
2023-05-22T11:29:29.956Z,1.47
2023-05-22T11:30:34.091Z,1.21
2023-05-22T11:31:36.275Z,1.58
2023-05-22T11:32:40.318Z,1.40
2023-05-22T11:33:45.202Z,1.06
2023-05-22T11:34:47.810Z,1.42
2023-05-22T11:35:52.685Z,1.23
2023-05-22T11:37:01.025Z,1.67
2023-05-22T11:38:04.493Z,1.12
2023-05-22T11:39:06.400Z,1.47
2023-05-22T11:40:10.010Z,1.19
2023-05-22T11:41:12.118Z,1.37
2023-05-22T11:42:14.015Z,1.27
2023-05-22T11:43:19.649Z,1.20
2023-05-22T11:44:21.793Z,1.15
2023-05-22T11:45:23.913Z,1.40
2023-05-22T11:46:27.026Z,1.28
2023-05-22T11:47:29.335Z,1.02
2023-05-22T11:48:31.699Z,1.33
2023-05-22T11:49:34.007Z,1.03
2023-05-22T11:50:42.321Z,1.00
2023-05-22T11:51:40.251Z,1.17
2023-05-22T11:52:42.847Z,1.27
2023-05-22T11:53:45.831Z,1.08
2023-05-22T11:54:48.039Z,1.16
2023-05-22T11:55:49.958Z,1.29
2023-05-22T11:56:52.231Z,1.40
2023-05-22T11:57:55.896Z,1.27
2023-05-22T11:58:57.815Z,1.47
2023-05-22T12:00:00.841Z,0.98
2023-05-22T12:01:04.049Z,1.31
2023-05-22T12:02:06.948Z,1.15
2023-05-22T12:03:08.894Z,1.16
2023-05-22T12:04:11.118Z,1.09
2023-05-22T12:05:13.236Z,1.27
2023-05-22T12:06:17.718Z,1.49
2023-05-22T12:07:20.915Z,1.19
2023-05-22T12:08:24.661Z,1.02
2023-05-22T12:09:27.523Z,1.26
2023-05-22T12:10:30.732Z,1.19
2023-05-22T12:11:35.839Z,1.24
2023-05-22T12:12:37.785Z,1.38
2023-05-22T12:13:39.803Z,1.41
2023-05-22T12:14:44.568Z,1.38
2023-05-22T12:15:46.488Z,1.42
2023-05-22T12:16:51.232Z,1.23
2023-05-22T12:17:56.758Z,1.23
2023-05-22T12:18:59.216Z,1.33
2023-05-22T12:20:01.230Z,1.17
2023-05-22T12:21:05.361Z,1.17
2023-05-22T12:22:08.902Z,1.06
2023-05-22T12:23:12.427Z,1.24
2023-05-22T12:24:14.358Z,1.25
2023-05-22T12:25:16.547Z,1.29
2023-05-22T12:26:19.008Z,0.99
2023-05-22T12:27:21.064Z,1.08
2023-05-22T12:28:23.207Z,0.87
2023-05-22T12:29:25.258Z,1.10
2023-05-22T12:30:27.547Z,0.93
2023-05-22T12:31:35.279Z,1.20
2023-05-22T12:32:40.024Z,1.27
2023-05-22T12:33:43.750Z,1.10
2023-05-22T12:34:46.991Z,1.12
2023-05-22T12:35:53.117Z,1.03
2023-05-22T12:36:55.528Z,1.12
2023-05-22T12:37:57.563Z,1.29
2023-05-22T12:38:59.893Z,1.23
2023-05-22T12:40:04.138Z,1.01
2023-05-22T12:41:06.736Z,1.32
2023-05-22T12:42:08.822Z,1.22
2023-05-22T12:43:12.456Z,1.46
2023-05-22T12:44:16.361Z,1.31
2023-05-22T12:45:18.427Z,1.21
2023-05-22T12:46:20.661Z,1.18
2023-05-22T12:47:23.745Z,1.07
2023-05-22T12:48:25.859Z,1.33
2023-05-22T12:49:27.886Z,1.42
2023-05-22T12:50:29.877Z,1.43
2023-05-22T12:51:32.186Z,1.47
2023-05-22T12:52:34.408Z,1.25
2023-05-22T12:53:36.326Z,1.35
2023-05-22T12:54:38.334Z,1.36
2023-05-22T12:55:40.331Z,1.37
2023-05-22T12:56:42.365Z,1.29
2023-05-22T12:57:44.383Z,1.28
2023-05-22T12:58:46.434Z,1.47
2023-05-22T12:59:48.335Z,1.55
2023-05-22T13:00:50.429Z,1.47
2023-05-22T13:01:52.704Z,1.27
2023-05-22T13:02:55.528Z,1.49
2023-05-22T13:03:57.543Z,1.12
2023-05-22T13:04:59.667Z,1.36
2023-05-22T13:06:01.754Z,1.13
2023-05-22T13:07:03.771Z,1.37
2023-05-22T13:08:05.670Z,1.09
2023-05-22T13:09:07.586Z,1.12
2023-05-22T13:10:10.634Z,1.54
2023-05-22T13:11:12.743Z,1.32
2023-05-22T13:12:14.796Z,1.27
2023-05-22T13:13:16.988Z,1.18
2023-05-22T13:14:19.197Z,1.13
2023-05-22T13:15:21.079Z,1.11
2023-05-22T13:16:23.758Z,1.21
2023-05-22T13:17:26.544Z,1.15
2023-05-22T13:18:28.625Z,1.56
2023-05-22T13:19:30.676Z,2.00
2023-05-22T13:20:33.574Z,1.22
2023-05-22T13:21:36.508Z,1.24
2023-05-22T13:22:38.633Z,1.27
2023-05-22T13:23:41.277Z,1.20
2023-05-22T13:24:44.159Z,1.49
2023-05-22T13:25:46.314Z,1.13
2023-05-22T13:26:48.575Z,1.27
2023-05-22T13:27:51.844Z,1.54
2023-05-22T13:28:54.420Z,1.09
2023-05-22T13:29:56.334Z,1.26
2023-05-22T13:30:58.429Z,1.36
2023-05-22T13:32:01.054Z,1.75
2023-05-22T13:33:03.250Z,1.47
2023-05-22T13:34:05.312Z,1.37
2023-05-22T13:35:08.612Z,1.12
2023-05-22T13:36:11.113Z,1.59
2023-05-22T13:37:13.231Z,0.97
2023-05-22T13:38:15.204Z,1.39
2023-05-22T13:39:17.094Z,1.16
2023-05-22T13:40:19.141Z,1.25
2023-05-22T13:41:21.373Z,1.55
2023-05-22T13:42:23.272Z,1.07
2023-05-22T13:43:25.289Z,1.68
2023-05-22T13:44:27.382Z,1.39
2023-05-22T13:45:29.357Z,1.16
2023-05-22T13:46:31.623Z,1.37
2023-05-22T13:47:34.141Z,1.59
2023-05-22T13:48:36.264Z,1.79
2023-05-22T13:49:38.168Z,1.21
2023-05-22T13:50:40.204Z,1.47
2023-05-22T13:51:42.992Z,1.58
2023-05-22T13:52:45.352Z,1.45
2023-05-22T13:53:47.277Z,1.17
2023-05-22T13:54:49.334Z,1.05
2023-05-22T13:55:51.410Z,1.82
2023-05-22T13:56:53.509Z,1.61
2023-05-22T13:57:55.436Z,1.56
2023-05-22T13:58:58.675Z,1.82
2023-05-22T14:00:00.628Z,1.70
2023-05-22T14:01:02.630Z,1.85
2023-05-22T14:02:05.044Z,1.47
2023-05-22T14:03:07.206Z,1.35
2023-05-22T14:04:10.326Z,1.46
2023-05-22T14:05:12.234Z,1.97
2023-05-22T14:06:14.635Z,1.66
2023-05-22T14:07:16.793Z,1.69
2023-05-22T14:08:18.773Z,1.49